Upington, South Africa
Current Conditions -  °F | °C
As of 5:00 PM on Tuesday 21 Oct 2014 (Local Time) from FAUP Reporting Station
Clear Clear  
Wind Chill: 95°   Ceiling: Unl
Heat Index: 95°   Visibility: 6mi
Dew Point: 21°   Wind: 10mph
Humidity: 7%   Direction: 240°WSW
Pressure: 29.91"   Gusts: NA
Location:  28.46°S, 21.23°E
Report Text: FAUP 211500Z 24009KT CAVOK 35/M06 Q1013 NOSIG
Loading
Personal Weather Stations






























Interactive Weather Map
Tropical Storm Tracking
New forecast layout! Learn more

10-Day Weather Forecast

Advertisements
Track Severe Weather on mobile